createdAt,value
2019-02-18T00:01:23.294Z,35.73
2019-02-18T00:03:52.550Z,40.87
2019-02-18T00:06:21.826Z,38.47
2019-02-18T00:08:50.986Z,37.60
2019-02-18T00:11:20.195Z,35.60
2019-02-18T00:13:49.352Z,34.83
2019-02-18T00:16:18.637Z,37.37
2019-02-18T00:18:47.881Z,39.67
2019-02-18T00:21:17.219Z,40.30
2019-02-18T00:23:46.451Z,35.17
2019-02-18T00:26:15.716Z,37.17
2019-02-18T00:28:44.947Z,36.93
2019-02-18T00:31:14.240Z,39.93
2019-02-18T00:33:43.512Z,36.80
2019-02-18T00:36:12.740Z,42.27
2019-02-18T00:38:41.995Z,38.87
2019-02-18T00:41:11.234Z,38.10
2019-02-18T00:43:40.512Z,43.80
2019-02-18T00:46:09.759Z,39.60
2019-02-18T00:48:39.035Z,41.17
2019-02-18T00:51:08.263Z,39.40
2019-02-18T00:53:37.451Z,38.23
2019-02-18T00:56:06.747Z,43.27
2019-02-18T00:58:35.998Z,40.20
2019-02-18T01:01:05.155Z,42.97
2019-02-18T01:03:34.411Z,39.17
2019-02-18T01:06:03.666Z,39.30
2019-02-18T01:08:32.847Z,39.17
2019-02-18T01:11:02.090Z,41.93
2019-02-18T01:13:31.354Z,40.10
2019-02-18T01:16:00.504Z,39.60
2019-02-18T01:18:29.691Z,39.20
2019-02-18T01:20:58.840Z,38.10
2019-02-18T01:23:28.113Z,40.77
2019-02-18T01:25:57.345Z,42.07
2019-02-18T01:28:26.627Z,41.00
2019-02-18T01:30:55.865Z,37.90
2019-02-18T01:33:25.198Z,42.57
2019-02-18T01:35:54.446Z,35.97
2019-02-18T01:38:23.710Z,39.20
2019-02-18T01:40:52.943Z,37.50
2019-02-18T01:43:22.236Z,45.60
2019-02-18T01:45:51.468Z,41.13
2019-02-18T01:48:20.732Z,41.50
2019-02-18T01:50:49.893Z,42.13
2019-02-18T01:53:19.119Z,44.60
2019-02-18T01:55:48.396Z,39.77
2019-02-18T01:58:17.619Z,41.70
2019-02-18T02:00:46.887Z,39.53
2019-02-18T02:03:16.129Z,42.23
2019-02-18T02:05:45.374Z,42.30
2019-02-18T02:08:14.602Z,39.67
2019-02-18T02:10:43.869Z,36.13
2019-02-18T02:13:33.039Z,35.67
2019-02-18T02:16:04.103Z,43.93
2019-02-18T02:18:33.345Z,36.97
2019-02-18T02:21:02.521Z,35.63
2019-02-18T02:23:31.838Z,37.23
2019-02-18T02:26:01.101Z,38.90
2019-02-18T02:28:30.332Z,34.57
2019-02-18T02:31:01.001Z,38.17
2019-02-18T02:33:30.791Z,37.27
2019-02-18T02:36:00.083Z,42.90
2019-02-18T02:38:29.816Z,38.77
2019-02-18T02:40:59.001Z,45.70
2019-02-18T02:43:28.336Z,42.37
2019-02-18T02:45:57.587Z,39.07
2019-02-18T02:48:26.817Z,40.10
2019-02-18T02:50:55.993Z,39.73
2019-02-18T02:53:25.311Z,45.40
2019-02-18T02:55:54.612Z,44.20
2019-02-18T02:58:23.792Z,42.20
2019-02-18T03:00:52.960Z,41.63
2019-02-18T03:03:22.151Z,39.50
2019-02-18T03:05:51.385Z,38.30
2019-02-18T03:08:21.098Z,40.87
2019-02-18T03:10:50.568Z,39.47
2019-02-18T03:13:19.827Z,43.93
2019-02-18T03:15:49.094Z,42.67
2019-02-18T03:18:18.422Z,43.97
2019-02-18T03:20:47.755Z,42.10
2019-02-18T03:23:16.995Z,41.63
2019-02-18T03:25:48.137Z,41.07
2019-02-18T03:28:45.903Z,43.80
2019-02-18T03:31:24.713Z,41.87
2019-02-18T03:34:05.063Z,38.53
2019-02-18T03:36:34.266Z,40.17
2019-02-18T03:39:05.022Z,38.27
2019-02-18T03:41:34.332Z,43.13
2019-02-18T03:44:03.624Z,40.27
2019-02-18T03:46:32.785Z,42.63
2019-02-18T03:49:01.976Z,39.30
2019-02-18T03:51:31.198Z,43.07
2019-02-18T03:54:00.595Z,39.87
2019-02-18T03:56:29.836Z,41.53
2019-02-18T03:58:59.022Z,39.37
2019-02-18T04:01:28.379Z,38.30
2019-02-18T04:03:57.679Z,40.97
2019-02-18T04:06:26.920Z,40.17
2019-02-18T04:08:56.190Z,44.17
2019-02-18T04:11:25.511Z,44.80
2019-02-18T04:13:54.689Z,40.63
2019-02-18T04:16:23.935Z,42.87
2019-02-18T04:18:53.264Z,42.70
2019-02-18T04:21:22.499Z,39.47
2019-02-18T04:23:51.840Z,41.50
2019-02-18T04:26:21.101Z,39.00
2019-02-18T04:28:50.326Z,40.17
2019-02-18T04:31:19.594Z,43.00
2019-02-18T04:33:48.905Z,41.23
2019-02-18T04:36:18.161Z,37.53
2019-02-18T04:38:54.101Z,38.60
2019-02-18T04:41:18.292Z,45.37
2019-02-18T04:43:47.496Z,44.20
2019-02-18T04:46:16.781Z,41.27
2019-02-18T04:48:46.287Z,40.87
2019-02-18T04:51:15.552Z,45.53
2019-02-18T04:53:44.698Z,41.53
2019-02-18T04:56:13.956Z,37.83
2019-02-18T04:58:43.115Z,43.23
2019-02-18T05:01:12.371Z,39.33
2019-02-18T05:03:41.668Z,41.27
2019-02-18T05:06:10.848Z,45.03
2019-02-18T05:08:40.074Z,41.53
2019-02-18T05:11:09.270Z,42.80
2019-02-18T05:13:38.580Z,48.13
2019-02-18T05:16:07.829Z,45.53
2019-02-18T05:18:37.079Z,46.97
2019-02-18T05:21:06.335Z,42.93
2019-02-18T05:23:35.665Z,39.27
2019-02-18T05:26:04.976Z,39.77
2019-02-18T05:28:34.163Z,40.27
2019-02-18T05:31:03.440Z,43.60
2019-02-18T05:33:32.752Z,46.37
2019-02-18T05:36:02.037Z,42.67
2019-02-18T05:38:31.456Z,43.47
2019-02-18T05:41:00.723Z,42.17
2019-02-18T05:43:30.002Z,44.23
2019-02-18T05:45:59.174Z,39.70
2019-02-18T05:48:28.510Z,45.57
2019-02-18T05:50:57.817Z,44.63
2019-02-18T05:53:27.067Z,43.13
2019-02-18T05:55:56.323Z,44.60
2019-02-18T05:58:25.515Z,45.27
2019-02-18T06:00:54.832Z,44.37
2019-02-18T06:03:24.181Z,43.67
2019-02-18T06:05:53.452Z,49.57
2019-02-18T06:08:22.640Z,44.13
2019-02-18T06:10:51.953Z,40.13
2019-02-18T06:13:21.289Z,46.33
2019-02-18T06:15:50.528Z,50.67
2019-02-18T06:18:19.711Z,46.83
2019-02-18T06:20:48.934Z,47.60
2019-02-18T06:23:18.201Z,42.73
2019-02-18T06:25:47.389Z,47.40
2019-02-18T06:28:16.624Z,41.83
2019-02-18T06:30:45.890Z,41.60
2019-02-18T06:33:15.205Z,41.43
2019-02-18T06:35:44.468Z,42.00
2019-02-18T06:38:13.709Z,45.00
2019-02-18T06:40:43.022Z,43.67
2019-02-18T06:43:12.350Z,46.77
2019-02-18T06:46:00.663Z,44.57
2019-02-18T06:48:32.400Z,49.70
2019-02-18T06:51:01.627Z,46.57
2019-02-18T06:53:30.903Z,44.47
2019-02-18T06:56:00.205Z,47.47
2019-02-18T06:58:36.728Z,49.17
2019-02-18T07:01:43.117Z,48.43
2019-02-18T07:04:20.230Z,45.17
2019-02-18T07:07:08.505Z,52.67
2019-02-18T07:10:02.863Z,44.53
2019-02-18T07:12:34.834Z,48.47
2019-02-18T07:15:04.179Z,41.77
2019-02-18T07:17:33.443Z,41.80
2019-02-18T07:20:02.728Z,38.70
2019-02-18T07:22:32.054Z,42.13
2019-02-18T07:25:01.446Z,35.70
2019-02-18T07:27:30.699Z,39.77
2019-02-18T07:29:59.935Z,43.23
2019-02-18T07:32:29.111Z,41.00
2019-02-18T07:34:58.343Z,36.87
2019-02-18T07:37:27.619Z,29.37
2019-02-18T07:40:01.786Z,40.93
2019-02-18T07:42:27.731Z,28.53
2019-02-18T07:44:57.012Z,28.57
2019-02-18T07:47:26.376Z,37.97
2019-02-18T07:49:55.571Z,28.60
2019-02-18T07:52:24.876Z,33.27
2019-02-18T07:54:54.151Z,24.27
2019-02-18T07:57:23.308Z,34.87
2019-02-18T07:59:52.493Z,26.23
2019-02-18T08:02:21.643Z,26.00
2019-02-18T08:04:50.943Z,27.33
2019-02-18T08:07:20.260Z,27.13
2019-02-18T08:09:49.520Z,30.10
2019-02-18T08:12:18.788Z,36.40
2019-02-18T08:14:48.038Z,36.63
2019-02-18T08:17:17.270Z,24.87
2019-02-18T08:19:46.528Z,35.83
2019-02-18T08:22:15.772Z,27.07
2019-02-18T08:24:45.081Z,39.00
2019-02-18T08:27:14.354Z,28.17
2019-02-18T08:29:43.654Z,26.47
2019-02-18T08:32:13.024Z,35.23
2019-02-18T08:34:42.203Z,28.90
2019-02-18T08:37:11.354Z,42.90
2019-02-18T08:39:40.540Z,28.23
2019-02-18T08:42:09.780Z,37.10
2019-02-18T08:44:39.076Z,31.93
2019-02-18T08:47:08.399Z,44.37
2019-02-18T08:49:37.687Z,31.10
2019-02-18T08:52:06.923Z,41.17
2019-02-18T08:54:36.233Z,35.63
2019-02-18T08:57:05.491Z,59.37
2019-02-18T08:59:34.646Z,33.23
2019-02-18T09:02:03.980Z,44.37
2019-02-18T09:04:33.224Z,31.43
2019-02-18T09:07:02.411Z,45.83
2019-02-18T09:09:31.644Z,33.63
2019-02-18T09:12:00.907Z,43.17
2019-02-18T09:14:30.150Z,34.63
2019-02-18T09:16:59.359Z,47.57
2019-02-18T09:19:28.600Z,31.37
2019-02-18T09:22:15.672Z,33.03
2019-02-18T09:24:50.499Z,33.33
2019-02-18T09:27:19.755Z,47.93
2019-02-18T09:29:48.969Z,34.83
2019-02-18T09:32:18.245Z,43.87
2019-02-18T09:34:53.223Z,34.37
2019-02-18T09:37:18.571Z,48.53
2019-02-18T09:39:47.792Z,30.67
2019-02-18T09:42:17.064Z,43.80
2019-02-18T09:44:46.564Z,29.87
2019-02-18T09:47:15.886Z,32.53
2019-02-18T09:49:45.148Z,43.00
2019-02-18T09:52:14.492Z,31.13
2019-02-18T09:54:43.647Z,45.93
2019-02-18T09:57:12.913Z,33.13
2019-02-18T09:59:42.138Z,40.70
2019-02-18T10:02:11.400Z,31.70
2019-02-18T10:04:40.646Z,31.07
2019-02-18T10:07:09.910Z,31.57
2019-02-18T10:09:39.144Z,32.83
2019-02-18T10:12:18.037Z,32.87
2019-02-18T10:14:39.368Z,33.57
2019-02-18T10:17:08.648Z,43.50
2019-02-18T10:19:37.900Z,29.40
2019-02-18T10:22:07.213Z,30.23
2019-02-18T10:24:36.568Z,28.77
2019-02-18T10:27:06.260Z,29.53
2019-02-18T10:29:35.451Z,29.47
2019-02-18T10:32:04.686Z,30.53
2019-02-18T10:34:34.020Z,29.83
2019-02-18T10:37:03.247Z,29.20
2019-02-18T10:39:32.474Z,29.63
2019-02-18T10:42:01.713Z,30.53
2019-02-18T10:44:31.004Z,29.50
2019-02-18T10:47:00.335Z,29.27
2019-02-18T10:49:29.596Z,28.20
2019-02-18T10:51:58.827Z,29.43
2019-02-18T10:54:28.158Z,29.10
2019-02-18T10:56:57.395Z,29.63
2019-02-18T10:59:26.740Z,27.50
2019-02-18T11:01:56.054Z,27.70
2019-02-18T11:04:25.396Z,26.77
2019-02-18T11:06:54.712Z,27.37
2019-02-18T11:09:24.052Z,27.23
2019-02-18T11:11:53.350Z,27.20
2019-02-18T11:14:22.943Z,28.30
2019-02-18T11:16:52.199Z,25.80
2019-02-18T11:19:21.426Z,25.33
2019-02-18T11:21:50.745Z,25.33
2019-02-18T11:24:20.767Z,25.37
2019-02-18T11:26:50.152Z,25.60
2019-02-18T11:29:19.463Z,25.10
2019-02-18T11:31:48.732Z,25.20
2019-02-18T11:34:17.975Z,25.73
2019-02-18T11:36:47.303Z,24.53
2019-02-18T11:39:16.662Z,24.03
2019-02-18T11:41:46.252Z,26.80
2019-02-18T11:44:15.583Z,23.70
2019-02-18T11:46:44.916Z,25.47
2019-02-18T11:49:14.156Z,23.93
2019-02-18T11:51:43.425Z,23.97
2019-02-18T11:54:12.751Z,25.67
2019-02-18T11:56:42.083Z,23.73
2019-02-18T11:59:11.415Z,23.90
2019-02-18T12:01:40.624Z,23.23
2019-02-18T12:04:09.937Z,29.87
2019-02-18T12:06:39.303Z,21.57
2019-02-18T12:09:08.599Z,20.63
2019-02-18T12:11:38.455Z,22.40
2019-02-18T12:14:07.880Z,21.07
2019-02-18T12:16:37.196Z,21.33
2019-02-18T12:19:06.453Z,20.27
2019-02-18T12:21:35.687Z,20.40
2019-02-18T12:24:05.992Z,21.30
2019-02-18T12:26:35.604Z,22.90
2019-02-18T12:29:04.941Z,20.37
2019-02-18T12:31:34.315Z,21.30
2019-02-18T12:34:03.577Z,21.13
2019-02-18T12:36:32.907Z,20.47
2019-02-18T12:39:02.245Z,19.20
2019-02-18T12:41:31.481Z,19.03
2019-02-18T12:44:00.759Z,19.00
2019-02-18T12:46:29.917Z,17.67
2019-02-18T12:48:59.182Z,20.90
2019-02-18T12:51:28.410Z,19.63
2019-02-18T12:56:28.703Z,18.73
2019-02-18T12:58:57.969Z,19.63
2019-02-18T12:59:28.762Z,19.57
2019-02-18T13:01:27.796Z,19.77
2019-02-18T13:03:57.229Z,19.33
2019-02-18T13:06:26.531Z,19.23
2019-02-18T13:08:55.976Z,19.20
2019-02-18T13:11:25.216Z,19.23
2019-02-18T13:13:54.855Z,21.60
2019-02-18T13:16:24.188Z,22.03
2019-02-18T13:18:53.503Z,22.50
2019-02-18T13:21:23.739Z,21.93
2019-02-18T13:23:54.159Z,21.90
2019-02-18T13:26:23.499Z,21.13
2019-02-18T13:28:52.798Z,22.13
2019-02-18T13:31:22.131Z,19.43
2019-02-18T13:33:51.449Z,21.57
2019-02-18T13:36:20.771Z,18.23
2019-02-18T13:38:50.085Z,19.20
2019-02-18T13:41:19.422Z,18.40
2019-02-18T13:43:48.760Z,19.17
2019-02-18T13:46:18.105Z,18.70
2019-02-18T13:48:47.412Z,20.30
2019-02-18T13:51:24.121Z,19.57
2019-02-18T13:53:47.711Z,16.10
2019-02-18T13:56:16.971Z,20.73
2019-02-18T13:58:46.290Z,17.17
2019-02-18T14:01:15.638Z,16.57
2019-02-18T14:03:44.861Z,17.97
2019-02-18T14:06:14.136Z,19.13
2019-02-18T14:08:43.450Z,18.80
2019-02-18T14:11:12.882Z,17.27
2019-02-18T14:13:42.224Z,16.97
2019-02-18T14:16:11.528Z,17.33
2019-02-18T14:18:40.855Z,16.87
2019-02-18T14:21:10.087Z,16.67
2019-02-18T14:23:39.338Z,15.90
2019-02-18T14:26:08.653Z,16.63
2019-02-18T14:28:37.914Z,16.43
2019-02-18T14:31:07.324Z,19.07
2019-02-18T14:33:36.667Z,18.47
2019-02-18T14:36:05.903Z,17.20
2019-02-18T14:38:35.222Z,15.40
2019-02-18T14:41:04.464Z,16.90
2019-02-18T14:43:34.359Z,16.50
2019-02-18T14:46:03.700Z,16.07
2019-02-18T14:48:32.951Z,16.93
2019-02-18T14:51:02.186Z,16.57
2019-02-18T14:53:31.523Z,16.30
2019-02-18T14:56:00.935Z,16.27
2019-02-18T14:58:30.494Z,15.57
2019-02-18T15:00:59.731Z,16.30
2019-02-18T15:03:29.087Z,21.00
2019-02-18T15:05:58.402Z,18.13
2019-02-18T15:08:28.057Z,16.93
2019-02-18T15:10:57.367Z,18.50
2019-02-18T15:13:27.388Z,16.97
2019-02-18T15:15:56.800Z,19.40
2019-02-18T15:18:26.342Z,17.80
2019-02-18T15:20:55.651Z,18.37
2019-02-18T15:23:24.881Z,21.73
2019-02-18T15:25:54.362Z,20.93
2019-02-18T15:28:23.915Z,17.23
2019-02-18T15:30:53.252Z,19.17
2019-02-18T15:33:22.563Z,21.00
2019-02-18T15:35:51.896Z,18.47
2019-02-18T15:38:21.173Z,17.60
2019-02-18T15:40:50.606Z,18.90
2019-02-18T15:43:20.235Z,19.10
2019-02-18T15:45:49.586Z,15.97
2019-02-18T15:48:18.954Z,18.17
2019-02-18T15:50:48.225Z,18.67
2019-02-18T15:53:17.578Z,16.83
2019-02-18T15:55:46.924Z,17.07
2019-02-18T15:58:16.435Z,18.67
2019-02-18T16:00:45.784Z,19.00
2019-02-18T16:03:15.019Z,17.23
2019-02-18T16:05:44.641Z,16.67
2019-02-18T16:08:13.950Z,19.10
2019-02-18T16:10:43.222Z,19.60
2019-02-18T16:13:13.812Z,23.13
2019-02-18T16:15:43.156Z,19.90
2019-02-18T16:18:12.575Z,17.67
2019-02-18T16:20:42.382Z,17.77
2019-02-18T16:23:11.727Z,18.80
2019-02-18T16:25:40.968Z,18.17
2019-02-18T16:28:10.304Z,17.17
2019-02-18T16:30:39.732Z,20.10
2019-02-18T16:33:09.374Z,18.80
2019-02-18T16:35:39.002Z,20.17
2019-02-18T16:38:08.272Z,18.27
2019-02-18T16:40:37.881Z,19.83
2019-02-18T16:43:07.244Z,21.93
2019-02-18T16:45:37.058Z,22.37
2019-02-18T16:48:06.800Z,19.23
2019-02-18T16:50:36.074Z,19.40
2019-02-18T16:53:05.390Z,18.33
2019-02-18T16:55:34.997Z,17.67
2019-02-18T16:58:04.332Z,18.43
2019-02-18T17:00:34.191Z,20.17
2019-02-18T17:03:03.536Z,19.83
2019-02-18T17:05:32.838Z,20.80
2019-02-18T17:08:02.100Z,19.30
2019-02-18T17:10:31.708Z,18.73
2019-02-18T17:13:07.960Z,18.27
2019-02-18T17:15:31.956Z,19.33
2019-02-18T17:18:01.314Z,18.07
2019-02-18T17:20:30.554Z,18.47
2019-02-18T17:22:59.924Z,19.10
2019-02-18T17:25:29.635Z,22.83
2019-02-18T17:27:59.300Z,16.77
2019-02-18T17:30:28.640Z,19.27
2019-02-18T17:32:57.876Z,28.13
2019-02-18T17:35:27.215Z,17.47
2019-02-18T17:37:56.536Z,22.90
2019-02-18T17:40:26.281Z,14.07
2019-02-18T17:42:55.594Z,15.30
2019-02-18T17:45:24.953Z,14.83
2019-02-18T17:47:54.259Z,15.60
2019-02-18T17:50:23.639Z,13.70
2019-02-18T17:52:52.966Z,22.33
2019-02-18T17:55:22.675Z,14.13
2019-02-18T17:57:51.993Z,18.43
2019-02-18T18:00:23.180Z,15.17
2019-02-18T18:02:52.484Z,18.97
2019-02-18T18:05:21.936Z,18.83
2019-02-18T18:07:51.249Z,15.07
2019-02-18T18:10:20.915Z,25.17
2019-02-18T18:12:50.195Z,16.53
2019-02-18T18:15:19.495Z,20.90
2019-02-18T18:17:48.800Z,13.77
2019-02-18T18:20:18.031Z,20.73
2019-02-18T18:22:47.333Z,21.53
2019-02-18T18:25:19.124Z,16.80
2019-02-18T18:27:48.561Z,18.97
2019-02-18T18:30:17.834Z,14.60
2019-02-18T18:32:47.065Z,24.93
2019-02-18T18:35:16.411Z,16.23
2019-02-18T18:37:45.623Z,20.80
2019-02-18T18:40:14.835Z,13.67
2019-02-18T18:42:44.096Z,20.73
2019-02-18T18:45:15.644Z,15.73
2019-02-18T18:47:45.095Z,21.13
2019-02-18T18:50:16.263Z,20.30
2019-02-18T18:52:45.787Z,25.87
2019-02-18T18:55:15.014Z,18.43
2019-02-18T18:57:44.354Z,34.97
2019-02-18T19:00:18.840Z,17.93
2019-02-18T19:02:48.027Z,41.37
2019-02-18T19:05:17.343Z,105.70
2019-02-18T19:07:46.531Z,33.50
2019-02-18T19:10:16.953Z,24.23
2019-02-18T19:12:46.290Z,37.77
2019-02-18T19:15:15.644Z,37.80
2019-02-18T19:17:44.974Z,31.37
2019-02-18T19:20:14.684Z,30.53
2019-02-18T19:22:43.952Z,24.13
2019-02-18T19:25:13.759Z,20.93
2019-02-18T19:27:43.011Z,34.37
2019-02-18T19:30:14.244Z,38.27
2019-02-18T19:32:43.584Z,34.27
2019-02-18T19:35:12.894Z,33.67
2019-02-18T19:37:42.073Z,31.03
2019-02-18T19:40:11.980Z,31.27
2019-02-18T19:42:41.178Z,22.60
2019-02-18T19:45:12.930Z,24.97
2019-02-18T19:47:42.396Z,16.13
2019-02-18T19:50:11.723Z,21.43
2019-02-18T19:52:41.030Z,18.63
2019-02-18T19:55:10.327Z,21.50
2019-02-18T19:57:39.572Z,19.77
2019-02-18T20:00:09.873Z,13.40
2019-02-18T20:02:39.104Z,21.13
2019-02-18T20:05:08.792Z,15.20
2019-02-18T20:07:38.111Z,20.37
2019-02-18T20:10:07.447Z,19.97
2019-02-18T20:12:36.752Z,13.27
2019-02-18T20:15:06.799Z,18.73
2019-02-18T20:17:36.039Z,18.63
2019-02-18T20:20:05.804Z,17.73
2019-02-18T20:22:35.130Z,20.17
2019-02-18T20:25:04.709Z,25.47
2019-02-18T20:27:33.947Z,29.03
2019-02-18T20:30:03.719Z,18.40
2019-02-18T20:32:33.014Z,29.90
2019-02-18T20:35:02.275Z,26.97
2019-02-18T20:37:31.448Z,17.43
2019-02-18T20:40:00.815Z,23.33
2019-02-18T20:42:30.051Z,21.17
2019-02-18T20:44:59.748Z,19.67
2019-02-18T20:47:29.024Z,19.47
2019-02-18T20:49:58.380Z,32.47
2019-02-18T20:52:27.695Z,18.00
2019-02-18T20:54:57.048Z,21.27
2019-02-18T20:57:26.288Z,23.27
2019-02-18T20:59:55.940Z,22.30
2019-02-18T21:02:25.108Z,19.47
2019-02-18T21:04:56.715Z,24.00
2019-02-18T21:07:25.948Z,19.93
2019-02-18T21:09:55.233Z,23.87
2019-02-18T21:12:24.542Z,21.27
2019-02-18T21:14:53.811Z,19.00
2019-02-18T21:17:23.160Z,23.90
2019-02-18T21:19:52.562Z,25.90
2019-02-18T21:22:21.906Z,21.43
2019-02-18T21:24:51.219Z,22.97
2019-02-18T21:27:20.651Z,21.07
2019-02-18T21:29:50.044Z,21.50
2019-02-18T21:32:19.259Z,30.00
2019-02-18T21:34:49.833Z,47.03
2019-02-18T21:37:19.244Z,42.70
2019-02-18T21:39:48.483Z,32.67
2019-02-18T21:42:17.944Z,23.93
2019-02-18T21:44:47.228Z,20.93
2019-02-18T21:47:16.570Z,21.07
2019-02-18T21:49:45.875Z,21.67
2019-02-18T21:52:15.144Z,20.93
2019-02-18T21:54:44.382Z,22.43
2019-02-18T21:57:13.919Z,23.03
2019-02-18T21:59:43.475Z,22.67
2019-02-18T22:02:12.731Z,20.83
2019-02-18T22:04:41.891Z,19.93
2019-02-18T22:07:11.098Z,23.37
2019-02-18T22:09:40.334Z,22.30
2019-02-18T22:12:10.085Z,21.97
2019-02-18T22:14:39.315Z,22.47
2019-02-18T22:17:08.499Z,21.77
2019-02-18T22:19:37.803Z,21.73
2019-02-18T22:22:07.127Z,27.13
2019-02-18T22:24:36.440Z,22.20
2019-02-18T22:27:05.662Z,20.50
2019-02-18T22:29:34.939Z,20.60
2019-02-18T22:32:04.257Z,21.17
2019-02-18T22:34:33.519Z,21.93
2019-02-18T22:37:02.827Z,26.00
2019-02-18T22:39:32.016Z,32.50
2019-02-18T22:42:01.451Z,24.07
2019-02-18T22:44:31.216Z,22.07
2019-02-18T22:47:00.531Z,22.67
2019-02-18T22:49:29.866Z,22.97
2019-02-18T22:51:59.174Z,24.03
2019-02-18T22:54:28.463Z,26.93
2019-02-18T22:56:57.771Z,19.77
2019-02-18T22:59:27.512Z,20.27
2019-02-18T23:01:56.671Z,21.23
2019-02-18T23:04:25.932Z,21.60
2019-02-18T23:06:55.266Z,22.37
2019-02-18T23:09:24.457Z,19.83
2019-02-18T23:11:53.713Z,20.30
2019-02-18T23:14:23.079Z,22.83
2019-02-18T23:16:52.365Z,23.87
2019-02-18T23:19:21.615Z,21.23
2019-02-18T23:21:50.855Z,21.57
2019-02-18T23:24:20.056Z,23.73
2019-02-18T23:26:49.303Z,23.37
2019-02-18T23:29:18.579Z,24.00
2019-02-18T23:31:48.024Z,22.70
2019-02-18T23:34:17.356Z,19.63
2019-02-18T23:36:46.615Z,23.43
2019-02-18T23:39:15.848Z,23.47
2019-02-18T23:41:45.191Z,20.53
2019-02-18T23:44:14.458Z,20.50
2019-02-18T23:46:43.791Z,23.97
2019-02-18T23:49:12.948Z,23.30
2019-02-18T23:51:42.172Z,21.33
2019-02-18T23:54:11.402Z,22.57
2019-02-18T23:56:40.748Z,22.20
2019-02-18T23:59:09.950Z,22.07
